sensor_id;sensor_type;location;lat;lon;timestamp;pressure;altitude;pressure_sealevel;temperature;humidity
10706;BME280;5404;42.656;23.336;2023-03-04T00:00:25;94962.16;;;6.14;100.00
10706;BME280;5404;42.656;23.336;2023-03-04T00:02:52;94971.69;;;6.30;100.00
10706;BME280;5404;42.656;23.336;2023-03-04T00:05:18;94969.03;;;6.35;100.00
10706;BME280;5404;42.656;23.336;2023-03-04T00:07:43;94970.38;;;6.32;100.00
10706;BME280;5404;42.656;23.336;2023-03-04T00:10:09;94969.56;;;6.32;100.00
10706;BME280;5404;42.656;23.336;2023-03-04T00:12:35;94961.38;;;6.33;100.00
10706;BME280;5404;42.656;23.336;2023-03-04T00:15:00;94928.31;;;6.16;100.00
10706;BME280;5404;42.656;23.336;2023-03-04T00:17:28;94949.75;;;6.34;100.00
10706;BME280;5404;42.656;23.336;2023-03-04T00:19:56;94950.28;;;6.36;100.00
10706;BME280;5404;42.656;23.336;2023-03-04T00:22:23;94956.06;;;6.38;100.00
10706;BME280;5404;42.656;23.336;2023-03-04T00:24:49;94956.88;;;6.39;100.00
10706;BME280;5404;42.656;23.336;2023-03-04T00:27:14;94954.22;;;6.34;100.00
10706;BME280;5404;42.656;23.336;2023-03-04T00:29:40;94953.69;;;6.27;100.00
10706;BME280;5404;42.656;23.336;2023-03-04T00:32:06;94948.41;;;6.22;100.00
10706;BME280;5404;42.656;23.336;2023-03-04T00:34:32;94950.25;;;6.21;100.00
10706;BME280;5404;42.656;23.336;2023-03-04T00:36:58;94948.94;;;6.19;100.00
10706;BME280;5404;42.656;23.336;2023-03-04T00:39:28;94944.69;;;6.23;100.00
10706;BME280;5404;42.656;23.336;2023-03-04T00:41:54;94948.41;;;6.27;100.00
10706;BME280;5404;42.656;23.336;2023-03-04T00:44:19;94950.25;;;6.31;100.00
10706;BME280;5404;42.656;23.336;2023-03-04T00:46:45;94955.03;;;6.39;100.00
10706;BME280;5404;42.656;23.336;2023-03-04T00:49:10;94956.34;;;6.42;100.00
10706;BME280;5404;42.656;23.336;2023-03-04T00:51:36;94946.56;;;6.42;100.00
10706;BME280;5404;42.656;23.336;2023-03-04T00:54:01;94951.31;;;6.40;100.00
10706;BME280;5404;42.656;23.336;2023-03-04T00:56:27;94947.09;;;6.39;100.00
10706;BME280;5404;42.656;23.336;2023-03-04T00:58:53;94933.34;;;6.17;100.00
10706;BME280;5404;42.656;23.336;2023-03-04T01:01:19;94946.81;;;6.26;100.00
10706;BME280;5404;42.656;23.336;2023-03-04T01:03:44;94940.19;;;6.18;100.00
10706;BME280;5404;42.656;23.336;2023-03-04T01:06:10;94945.50;;;6.23;100.00
10706;BME280;5404;42.656;23.336;2023-03-04T01:08:36;94941.75;;;6.09;100.00
10706;BME280;5404;42.656;23.336;2023-03-04T01:11:01;94936.72;;;5.98;100.00
10706;BME280;5404;42.656;23.336;2023-03-04T01:13:27;94940.44;;;6.02;100.00
10706;BME280;5404;42.656;23.336;2023-03-04T01:15:53;94947.31;;;6.03;100.00
10706;BME280;5404;42.656;23.336;2023-03-04T01:18:20;94938.09;;;6.05;100.00
10706;BME280;5404;42.656;23.336;2023-03-04T01:20:45;94937.81;;;6.07;100.00
10706;BME280;5404;42.656;23.336;2023-03-04T01:23:12;94933.34;;;6.12;100.00
10706;BME280;5404;42.656;23.336;2023-03-04T01:25:37;94928.53;;;6.14;100.00
10706;BME280;5404;42.656;23.336;2023-03-04T01:28:02;94921.16;;;6.11;100.00
10706;BME280;5404;42.656;23.336;2023-03-04T01:30:28;94922.97;;;6.11;100.00
10706;BME280;5404;42.656;23.336;2023-03-04T01:32:53;94911.09;;;6.03;100.00
10706;BME280;5404;42.656;23.336;2023-03-04T01:35:19;94921.41;;;6.15;100.00
10706;BME280;5404;42.656;23.336;2023-03-04T01:37:46;94925.13;;;6.24;100.00
10706;BME280;5404;42.656;23.336;2023-03-04T01:40:12;94926.97;;;6.28;100.00
10706;BME280;5404;42.656;23.336;2023-03-04T01:42:39;94912.16;;;6.27;100.00
10706;BME280;5404;42.656;23.336;2023-03-04T01:45:06;94918.50;;;6.26;100.00
10706;BME280;5404;42.656;23.336;2023-03-04T01:47:33;94878.81;;;6.06;100.00
10706;BME280;5404;42.656;23.336;2023-03-04T01:50:05;94900.78;;;6.22;100.00
10706;BME280;5404;42.656;23.336;2023-03-04T01:52:31;94910.56;;;6.16;100.00
10706;BME280;5404;42.656;23.336;2023-03-04T01:54:56;94905.00;;;6.13;100.00
10706;BME280;5404;42.656;23.336;2023-03-04T01:57:24;94899.97;;;6.06;100.00
10706;BME280;5404;42.656;23.336;2023-03-04T02:00:30;94902.09;;;5.94;100.00
10706;BME280;5404;42.656;23.336;2023-03-04T02:03:01;94894.69;;;5.91;100.00
10706;BME280;5404;42.656;23.336;2023-03-04T02:05:28;94894.16;;;5.89;100.00
10706;BME280;5404;42.656;23.336;2023-03-04T02:07:55;94901.53;;;5.87;100.00
10706;BME280;5404;42.656;23.336;2023-03-04T02:10:23;94901.56;;;5.92;100.00
10706;BME280;5404;42.656;23.336;2023-03-04T02:12:50;94898.91;;;5.92;100.00
10706;BME280;5404;42.656;23.336;2023-03-04T02:15:16;94887.53;;;5.86;100.00
10706;BME280;5404;42.656;23.336;2023-03-04T02:17:42;94897.84;;;5.88;100.00
10706;BME280;5404;42.656;23.336;2023-03-04T02:23:06;94893.34;;;5.88;100.00
10706;BME280;5404;42.656;23.336;2023-03-04T02:25:44;94892.81;;;5.86;100.00
10706;BME280;5404;42.656;23.336;2023-03-04T02:28:10;94895.41;;;5.76;100.00
10706;BME280;5404;42.656;23.336;2023-03-04T02:30:36;94866.06;;;5.63;100.00
10706;BME280;5404;42.656;23.336;2023-03-04T02:33:01;94890.69;;;5.83;100.00
10706;BME280;5404;42.656;23.336;2023-03-04T02:35:27;94896.22;;;5.77;100.00
10706;BME280;5404;42.656;23.336;2023-03-04T02:37:53;94878.50;;;5.72;100.00
10706;BME280;5404;42.656;23.336;2023-03-04T02:40:30;94886.75;;;5.91;100.00
10706;BME280;5404;42.656;23.336;2023-03-04T02:42:59;94894.94;;;5.89;100.00
10706;BME280;5404;42.656;23.336;2023-03-04T02:45:44;94876.72;;;5.88;100.00
10706;BME280;5404;42.656;23.336;2023-03-04T02:48:13;94876.69;;;5.83;100.00
10706;BME280;5404;42.656;23.336;2023-03-04T02:50:45;94877.72;;;5.82;100.00
10706;BME280;5404;42.656;23.336;2023-03-04T02:53:11;94870.31;;;5.74;100.00
10706;BME280;5404;42.656;23.336;2023-03-04T02:55:37;94866.31;;;5.71;100.00
10706;BME280;5404;42.656;23.336;2023-03-04T02:58:03;94869.25;;;5.70;100.00
10706;BME280;5404;42.656;23.336;2023-03-04T03:00:30;94867.13;;;5.67;100.00
10706;BME280;5404;42.656;23.336;2023-03-04T03:02:55;94874.53;;;5.70;100.00
10706;BME280;5404;42.656;23.336;2023-03-04T03:05:23;94877.44;;;5.68;100.00
10706;BME280;5404;42.656;23.336;2023-03-04T03:07:49;94864.97;;;5.54;100.00
10706;BME280;5404;42.656;23.336;2023-03-04T03:10:16;94876.88;;;5.56;100.00
10706;BME280;5404;42.656;23.336;2023-03-04T03:12:43;94870.50;;;5.47;100.00
10706;BME280;5404;42.656;23.336;2023-03-04T03:15:09;94882.91;;;5.42;100.00
10706;BME280;5404;42.656;23.336;2023-03-04T03:17:35;94881.88;;;5.43;100.00
10706;BME280;5404;42.656;23.336;2023-03-04T03:20:00;94878.44;;;5.42;100.00
10706;BME280;5404;42.656;23.336;2023-03-04T03:22:26;94870.22;;;5.34;100.00
10706;BME280;5404;42.656;23.336;2023-03-04T03:24:51;94883.69;;;5.32;100.00
10706;BME280;5404;42.656;23.336;2023-03-04T03:27:16;94882.06;;;5.26;100.00
10706;BME280;5404;42.656;23.336;2023-03-04T03:29:42;94796.03;;;4.68;100.00
10706;BME280;5404;42.656;23.336;2023-03-04T03:32:07;94874.63;;;5.08;100.00
10706;BME280;5404;42.656;23.336;2023-03-04T03:34:33;94870.88;;;5.04;100.00
10706;BME280;5404;42.656;23.336;2023-03-04T03:36:59;94873.31;;;5.11;100.00
10706;BME280;5404;42.656;23.336;2023-03-04T03:39:25;94879.09;;;5.08;100.00
10706;BME280;5404;42.656;23.336;2023-03-04T03:41:50;94875.38;;;4.99;100.00
10706;BME280;5404;42.656;23.336;2023-03-04T03:44:16;94871.38;;;4.91;100.00
10706;BME280;5404;42.656;23.336;2023-03-04T03:46:41;94867.63;;;4.82;100.00
10706;BME280;5404;42.656;23.336;2023-03-04T03:49:07;94871.28;;;4.71;100.00
10706;BME280;5404;42.656;23.336;2023-03-04T03:51:33;94871.47;;;4.64;100.00
10706;BME280;5404;42.656;23.336;2023-03-04T03:54:00;94866.44;;;4.58;100.00
10706;BME280;5404;42.656;23.336;2023-03-04T03:56:26;94864.56;;;4.48;100.00
10706;BME280;5404;42.656;23.336;2023-03-04T03:58:51;94863.47;;;4.44;100.00
10706;BME280;5404;42.656;23.336;2023-03-04T04:01:17;94866.31;;;4.38;100.00
10706;BME280;5404;42.656;23.336;2023-03-04T04:03:42;94866.28;;;4.33;100.00
10706;BME280;5404;42.656;23.336;2023-03-04T04:06:07;94866.25;;;4.28;100.00
10706;BME280;5404;42.656;23.336;2023-03-04T04:08:33;94853.00;;;4.18;100.00
10706;BME280;5404;42.656;23.336;2023-03-04T04:10:59;94848.69;;;4.07;100.00
10706;BME280;5404;42.656;23.336;2023-03-04T04:13:25;94858.56;;;4.21;100.00
10706;BME280;5404;42.656;23.336;2023-03-04T04:15:51;94864.66;;;4.27;100.00
10706;BME280;5404;42.656;23.336;2023-03-04T04:18:17;94850.94;;;4.25;100.00
10706;BME280;5404;42.656;23.336;2023-03-04T04:20:42;94858.31;;;4.23;100.00
10706;BME280;5404;42.656;23.336;2023-03-04T04:23:07;94853.25;;;4.16;100.00
10706;BME280;5404;42.656;23.336;2023-03-04T04:25:34;94852.72;;;4.14;100.00
10706;BME280;5404;42.656;23.336;2023-03-04T04:28:00;94862.72;;;4.12;100.00
10706;BME280;5404;42.656;23.336;2023-03-04T04:30:26;94853.44;;;4.05;100.00
10706;BME280;5404;42.656;23.336;2023-03-04T04:32:52;94865.88;;;4.09;100.00
10706;BME280;5404;42.656;23.336;2023-03-04T04:35:19;94854.97;;;4.01;100.00
10706;BME280;5404;42.656;23.336;2023-03-04T04:37:45;94864.00;;;4.10;100.00
10706;BME280;5404;42.656;23.336;2023-03-04T04:40:11;94864.22;;;4.03;100.00
10706;BME280;5404;42.656;23.336;2023-03-04T04:42:36;94867.91;;;4.02;100.00
10706;BME280;5404;42.656;23.336;2023-03-04T04:45:03;94869.75;;;4.02;100.00
10706;BME280;5404;42.656;23.336;2023-03-04T04:47:29;94847.28;;;3.94;100.00
10706;BME280;5404;42.656;23.336;2023-03-04T04:49:55;94872.69;;;4.05;100.00
10706;BME280;5404;42.656;23.336;2023-03-04T04:52:20;94867.69;;;4.09;100.00
10706;BME280;5404;42.656;23.336;2023-03-04T04:54:45;94867.44;;;4.10;100.00
10706;BME280;5404;42.656;23.336;2023-03-04T04:57:12;94876.75;;;4.18;100.00
10706;BME280;5404;42.656;23.336;2023-03-04T04:59:37;94878.06;;;4.20;100.00
10706;BME280;5404;42.656;23.336;2023-03-04T05:02:03;94883.88;;;4.22;100.00
10706;BME280;5404;42.656;23.336;2023-03-04T05:04:28;94871.69;;;4.16;100.00
10706;BME280;5404;42.656;23.336;2023-03-04T05:06:54;94893.66;;;4.27;100.00
10706;BME280;5404;42.656;23.336;2023-03-04T05:09:19;94870.13;;;4.15;100.00
10706;BME280;5404;42.656;23.336;2023-03-04T05:11:47;94885.16;;;4.20;100.00
10706;BME280;5404;42.656;23.336;2023-03-04T05:14:12;94892.34;;;4.24;100.00
10706;BME280;5404;42.656;23.336;2023-03-04T05:16:38;94887.09;;;4.29;100.00
10706;BME280;5404;42.656;23.336;2023-03-04T05:19:03;94890.25;;;4.26;100.00
10706;BME280;5404;42.656;23.336;2023-03-04T05:21:29;94893.41;;;4.28;100.00
10706;BME280;5404;42.656;23.336;2023-03-04T05:23:54;94892.38;;;4.29;100.00
10706;BME280;5404;42.656;23.336;2023-03-04T05:26:20;94891.28;;;4.25;100.00
10706;BME280;5404;42.656;23.336;2023-03-04T05:28:47;94896.34;;;4.32;100.00
10706;BME280;5404;42.656;23.336;2023-03-04T05:31:13;94895.53;;;4.26;100.00
10706;BME280;5404;42.656;23.336;2023-03-04T05:33:41;94901.41;;;4.38;100.00
10706;BME280;5404;42.656;23.336;2023-03-04T05:36:07;94902.81;;;4.51;100.00
10706;BME280;5404;42.656;23.336;2023-03-04T05:38:32;94902.06;;;4.55;100.00
10706;BME280;5404;42.656;23.336;2023-03-04T05:41:03;94906.34;;;4.66;100.00
10706;BME280;5404;42.656;23.336;2023-03-04T05:43:30;94910.88;;;4.71;100.00
10706;BME280;5404;42.656;23.336;2023-03-04T05:45:56;94881.25;;;4.64;100.00
10706;BME280;5404;42.656;23.336;2023-03-04T05:48:22;94901.94;;;4.82;100.00
10706;BME280;5404;42.656;23.336;2023-03-04T05:50:56;94905.41;;;4.88;100.00
10706;BME280;5404;42.656;23.336;2023-03-04T05:53:22;94899.88;;;4.89;100.00
10706;BME280;5404;42.656;23.336;2023-03-04T05:55:48;94899.41;;;5.02;100.00
10706;BME280;5404;42.656;23.336;2023-03-04T05:58:15;94904.22;;;5.15;100.00
10706;BME280;5404;42.656;23.336;2023-03-04T06:00:41;94903.44;;;5.20;100.00
10706;BME280;5404;42.656;23.336;2023-03-04T06:03:18;94879.38;;;5.16;100.00
10706;BME280;5404;42.656;23.336;2023-03-04T06:05:44;94903.25;;;5.36;100.00
10706;BME280;5404;42.656;23.336;2023-03-04T06:08:10;94826.78;;;5.00;100.00
10706;BME280;5404;42.656;23.336;2023-03-04T06:10:37;94915.22;;;5.64;100.00
10706;BME280;5404;42.656;23.336;2023-03-04T06:13:02;94915.00;;;5.80;100.00
10706;BME280;5404;42.656;23.336;2023-03-04T06:15:28;94913.66;;;5.73;100.00
10706;BME280;5404;42.656;23.336;2023-03-04T06:17:54;94912.06;;;5.72;100.00
10706;BME280;5404;42.656;23.336;2023-03-04T06:20:19;94908.91;;;5.75;100.00
10706;BME280;5404;42.656;23.336;2023-03-04T06:22:45;94914.47;;;5.78;100.00
10706;BME280;5404;42.656;23.336;2023-03-04T06:25:10;94904.41;;;5.70;100.00
10706;BME280;5404;42.656;23.336;2023-03-04T06:27:35;94908.63;;;5.76;100.00
10706;BME280;5404;42.656;23.336;2023-03-04T06:30:01;94885.63;;;5.67;100.00
10706;BME280;5404;42.656;23.336;2023-03-04T06:32:27;94911.59;;;5.85;100.00
10706;BME280;5404;42.656;23.336;2023-03-04T06:34:52;94917.41;;;5.87;100.00
10706;BME280;5404;42.656;23.336;2023-03-04T06:37:18;94915.84;;;6.01;100.00
10706;BME280;5404;42.656;23.336;2023-03-04T06:39:44;94908.44;;;6.08;100.00
10706;BME280;5404;42.656;23.336;2023-03-04T06:42:10;94911.63;;;6.15;100.00
10706;BME280;5404;42.656;23.336;2023-03-04T06:44:36;94904.50;;;6.16;100.00
10706;BME280;5404;42.656;23.336;2023-03-04T06:47:02;94918.25;;;6.28;100.00
10706;BME280;5404;42.656;23.336;2023-03-04T06:49:27;94921.16;;;6.31;100.00
10706;BME280;5404;42.656;23.336;2023-03-04T06:51:53;94923.81;;;6.41;100.00
10706;BME280;5404;42.656;23.336;2023-03-04T06:54:20;94921.44;;;6.40;100.00
10706;BME280;5404;42.656;23.336;2023-03-04T06:56:46;94928.56;;;6.49;100.00
10706;BME280;5404;42.656;23.336;2023-03-04T06:59:12;94905.03;;;6.43;100.00
10706;BME280;5404;42.656;23.336;2023-03-04T07:01:38;94920.34;;;6.56;100.00
10706;BME280;5404;42.656;23.336;2023-03-04T07:04:04;94920.63;;;6.54;100.00
10706;BME280;5404;42.656;23.336;2023-03-04T07:06:30;94919.03;;;6.58;100.00
10706;BME280;5404;42.656;23.336;2023-03-04T07:08:56;94922.44;;;6.64;100.00
10706;BME280;5404;42.656;23.336;2023-03-04T07:11:22;94915.84;;;6.71;100.00
10706;BME280;5404;42.656;23.336;2023-03-04T07:13:49;94911.09;;;6.68;100.00
10706;BME280;5404;42.656;23.336;2023-03-04T07:16:18;94916.91;;;6.70;100.00
10706;BME280;5404;42.656;23.336;2023-03-04T07:18:44;94920.63;;;6.59;100.00
10706;BME280;5404;42.656;23.336;2023-03-04T07:21:10;94924.06;;;6.60;100.00
10706;BME280;5404;42.656;23.336;2023-03-04T07:23:36;94925.91;;;6.64;100.00
10706;BME280;5404;42.656;23.336;2023-03-04T07:26:02;94917.69;;;6.56;100.00
10706;BME280;5404;42.656;23.336;2023-03-04T07:28:28;94912.16;;;6.47;100.00
10706;BME280;5404;42.656;23.336;2023-03-04T07:30:53;94927.50;;;6.60;100.00
10706;BME280;5404;42.656;23.336;2023-03-04T07:33:19;94927.25;;;6.57;100.00
10706;BME280;5404;42.656;23.336;2023-03-04T07:35:44;94925.91;;;6.54;100.00
10706;BME280;5404;42.656;23.336;2023-03-04T07:38:10;94921.41;;;6.60;100.00
10706;BME280;5404;42.656;23.336;2023-03-04T07:40:36;94924.59;;;6.62;100.00
10706;BME280;5404;42.656;23.336;2023-03-04T07:43:02;94896.53;;;6.51;100.00
10706;BME280;5404;42.656;23.336;2023-03-04T07:45:28;94928.25;;;6.76;100.00
10706;BME280;5404;42.656;23.336;2023-03-04T07:47:53;94914.78;;;6.77;100.00
10706;BME280;5404;42.656;23.336;2023-03-04T07:50:20;94903.09;;;6.83;100.00
10706;BME280;5404;42.656;23.336;2023-03-04T07:52:47;94908.13;;;6.85;100.00
10706;BME280;5404;42.656;23.336;2023-03-04T07:55:15;94893.84;;;6.86;100.00
10706;BME280;5404;42.656;23.336;2023-03-04T07:57:44;94908.91;;;6.95;100.00
10706;BME280;5404;42.656;23.336;2023-03-04T08:00:12;94905.44;;;7.05;100.00
10706;BME280;5404;42.656;23.336;2023-03-04T08:02:38;94909.09;;;7.14;100.00
10706;BME280;5404;42.656;23.336;2023-03-04T08:05:04;94907.81;;;7.06;100.00
10706;BME280;5404;42.656;23.336;2023-03-04T08:07:30;94897.75;;;7.14;100.00
10706;BME280;5404;42.656;23.336;2023-03-04T08:09:57;94882.63;;;7.14;100.00
10706;BME280;5404;42.656;23.336;2023-03-04T08:12:22;94879.66;;;7.21;100.00
10706;BME280;5404;42.656;23.336;2023-03-04T08:14:51;94885.72;;;7.41;100.00
10706;BME280;5404;42.656;23.336;2023-03-04T08:17:17;94839.47;;;7.03;100.00
10706;BME280;5404;42.656;23.336;2023-03-04T08:19:43;94890.50;;;7.34;100.00
10706;BME280;5404;42.656;23.336;2023-03-04T08:22:08;94886.28;;;7.28;100.00
10706;BME280;5404;42.656;23.336;2023-03-04T08:24:35;94867.84;;;7.03;100.00
10706;BME280;5404;42.656;23.336;2023-03-04T08:27:00;94877.84;;;7.16;100.00
10706;BME280;5404;42.656;23.336;2023-03-04T08:29:26;94880.44;;;7.26;100.00
10706;BME280;5404;42.656;23.336;2023-03-04T08:31:53;94883.66;;;7.23;100.00
10706;BME280;5404;42.656;23.336;2023-03-04T08:34:21;94879.59;;;7.41;100.00
10706;BME280;5404;42.656;23.336;2023-03-04T08:36:46;94860.47;;;7.49;100.00
10706;BME280;5404;42.656;23.336;2023-03-04T08:39:15;94871.41;;;7.81;100.00
10706;BME280;5404;42.656;23.336;2023-03-04T08:41:43;94874.22;;;7.99;100.00
10706;BME280;5404;42.656;23.336;2023-03-04T08:44:08;94844.53;;;7.97;100.00
10706;BME280;5404;42.656;23.336;2023-03-04T08:46:37;94858.13;;;8.24;100.00
10706;BME280;5404;42.656;23.336;2023-03-04T08:49:03;94848.75;;;8.37;100.00
10706;BME280;5404;42.656;23.336;2023-03-04T08:51:28;94851.16;;;8.62;100.00
10706;BME280;5404;42.656;23.336;2023-03-04T08:53:54;94847.50;;;8.82;100.00
10706;BME280;5404;42.656;23.336;2023-03-04T08:56:20;94847.09;;;9.17;100.00
10706;BME280;5404;42.656;23.336;2023-03-04T08:58:45;94843.13;;;9.57;100.00
10706;BME280;5404;42.656;23.336;2023-03-04T09:01:12;94837.97;;;9.84;100.00
10706;BME280;5404;42.656;23.336;2023-03-04T09:03:38;94827.38;;;9.79;100.00
10706;BME280;5404;42.656;23.336;2023-03-04T09:06:04;94800.16;;;9.50;100.00
10706;BME280;5404;42.656;23.336;2023-03-04T09:08:30;94803.00;;;9.34;100.00
10706;BME280;5404;42.656;23.336;2023-03-04T09:10:56;94825.66;;;9.32;100.00
10706;BME280;5404;42.656;23.336;2023-03-04T09:13:23;94822.19;;;9.13;100.00
10706;BME280;5404;42.656;23.336;2023-03-04T09:15:51;94827.16;;;8.96;100.00
10706;BME280;5404;42.656;23.336;2023-03-04T09:18:18;94825.47;;;8.81;100.00
10706;BME280;5404;42.656;23.336;2023-03-04T09:20:45;94825.22;;;8.78;100.00
10706;BME280;5404;42.656;23.336;2023-03-04T09:23:11;94825.56;;;8.71;100.00
10706;BME280;5404;42.656;23.336;2023-03-04T09:25:38;94821.72;;;8.82;100.00
10706;BME280;5404;42.656;23.336;2023-03-04T09:28:05;94818.28;;;9.05;100.00
10706;BME280;5404;42.656;23.336;2023-03-04T09:30:31;94817.41;;;9.33;100.00
10706;BME280;5404;42.656;23.336;2023-03-04T09:32:57;94810.63;;;9.41;100.00
10706;BME280;5404;42.656;23.336;2023-03-04T09:35:23;94806.03;;;9.47;100.00
10706;BME280;5404;42.656;23.336;2023-03-04T09:37:49;94796.06;;;9.38;100.00
10706;BME280;5404;42.656;23.336;2023-03-04T09:40:20;94800.44;;;9.48;100.00
10706;BME280;5404;42.656;23.336;2023-03-04T09:42:49;94802.88;;;9.44;100.00
10706;BME280;5404;42.656;23.336;2023-03-04T09:45:21;94794.34;;;9.48;100.00
10706;BME280;5404;42.656;23.336;2023-03-04T09:47:50;94796.28;;;9.61;100.00
10706;BME280;5404;42.656;23.336;2023-03-04T09:50:18;94791.91;;;9.70;100.00
10706;BME280;5404;42.656;23.336;2023-03-04T09:53:32;94781.97;;;9.57;100.00
10706;BME280;5404;42.656;23.336;2023-03-04T09:55:51;94798.28;;;9.69;100.00
10706;BME280;5404;42.656;23.336;2023-03-04T10:03:41;94781.34;;;10.15;100.00
10706;BME280;5404;42.656;23.336;2023-03-04T10:06:12;94782.25;;;10.24;100.00
10706;BME280;5404;42.656;23.336;2023-03-04T10:14:29;94760.38;;;9.95;100.00
10706;BME280;5404;42.656;23.336;2023-03-04T10:19:41;94759.53;;;10.13;100.00
10706;BME280;5404;42.656;23.336;2023-03-04T10:22:27;94743.69;;;10.22;100.00
10706;BME280;5404;42.656;23.336;2023-03-04T10:24:57;94752.50;;;10.36;100.00
10706;BME280;5404;42.656;23.336;2023-03-04T10:27:22;94753.00;;;10.38;100.00
10706;BME280;5404;42.656;23.336;2023-03-04T10:29:49;94712.72;;;10.26;100.00
10706;BME280;5404;42.656;23.336;2023-03-04T10:32:19;94738.78;;;10.56;100.00
10706;BME280;5404;42.656;23.336;2023-03-04T10:34:45;94733.41;;;10.61;100.00
10706;BME280;5404;42.656;23.336;2023-03-04T10:37:11;94733.41;;;10.75;100.00
10706;BME280;5404;42.656;23.336;2023-03-04T10:39:42;94728.53;;;10.63;100.00
10706;BME280;5404;42.656;23.336;2023-03-04T10:44:59;94716.16;;;11.08;100.00
10706;BME280;5404;42.656;23.336;2023-03-04T10:47:31;94712.44;;;10.95;100.00
10706;BME280;5404;42.656;23.336;2023-03-04T10:49:59;94709.88;;;10.77;100.00
10706;BME280;5404;42.656;23.336;2023-03-04T10:52:37;94713.75;;;10.71;100.00
10706;BME280;5404;42.656;23.336;2023-03-04T10:55:23;94706.25;;;10.73;100.00
10706;BME280;5404;42.656;23.336;2023-03-04T10:57:53;94708.03;;;10.64;100.00
10706;BME280;5404;42.656;23.336;2023-03-04T11:00:29;94697.16;;;10.60;100.00
10706;BME280;5404;42.656;23.336;2023-03-04T11:06:15;94688.69;;;10.58;100.00
10706;BME280;5404;42.656;23.336;2023-03-04T11:08:43;94687.50;;;10.64;100.00
10706;BME280;5404;42.656;23.336;2023-03-04T11:11:23;94669.94;;;10.36;100.00
10706;BME280;5404;42.656;23.336;2023-03-04T11:13:54;94677.63;;;10.37;100.00
10706;BME280;5404;42.656;23.336;2023-03-04T11:16:30;94677.94;;;10.36;100.00
10706;BME280;5404;42.656;23.336;2023-03-04T11:19:14;94684.75;;;10.42;100.00
10706;BME280;5404;42.656;23.336;2023-03-04T11:21:40;94663.44;;;10.28;100.00
10706;BME280;5404;42.656;23.336;2023-03-04T11:32:48;94663.56;;;10.05;100.00
10706;BME280;5404;42.656;23.336;2023-03-04T11:35:31;94654.94;;;10.13;100.00
10706;BME280;5404;42.656;23.336;2023-03-04T11:40:47;94633.78;;;9.89;100.00
10706;BME280;5404;42.656;23.336;2023-03-04T11:43:36;94653.19;;;9.90;100.00
10706;BME280;5404;42.656;23.336;2023-03-04T11:51:34;94661.69;;;10.05;100.00
10706;BME280;5404;42.656;23.336;2023-03-04T11:54:16;94656.81;;;10.26;100.00
10706;BME280;5404;42.656;23.336;2023-03-04T11:56:51;94645.56;;;10.29;100.00
10706;BME280;5404;42.656;23.336;2023-03-04T12:07:48;94621.41;;;10.12;100.00
10706;BME280;5404;42.656;23.336;2023-03-04T12:10:23;94634.81;;;10.20;100.00
10706;BME280;5404;42.656;23.336;2023-03-04T12:13:24;94627.53;;;10.26;100.00
10706;BME280;5404;42.656;23.336;2023-03-04T12:24:40;94620.94;;;10.37;100.00
10706;BME280;5404;42.656;23.336;2023-03-04T12:27:11;94614.50;;;10.38;100.00
10706;BME280;5404;42.656;23.336;2023-03-04T12:33:33;94602.75;;;10.39;100.00
10706;BME280;5404;42.656;23.336;2023-03-04T12:44:26;94594.66;;;10.44;100.00
10706;BME280;5404;42.656;23.336;2023-03-04T12:49:59;94585.50;;;10.50;100.00
10706;BME280;5404;42.656;23.336;2023-03-04T12:55:16;94547.56;;;10.17;100.00
10706;BME280;5404;42.656;23.336;2023-03-04T12:57:45;94578.88;;;10.47;100.00
10706;BME280;5404;42.656;23.336;2023-03-04T13:08:20;94565.94;;;10.54;100.00
10706;BME280;5404;42.656;23.336;2023-03-04T13:10:49;94564.97;;;10.50;100.00
10706;BME280;5404;42.656;23.336;2023-03-04T13:16:27;94555.19;;;10.46;100.00
10706;BME280;5404;42.656;23.336;2023-03-04T13:18:55;94556.41;;;10.40;100.00
10706;BME280;5404;42.656;23.336;2023-03-04T13:21:23;94558.88;;;10.36;100.00
10706;BME280;5404;42.656;23.336;2023-03-04T13:23:50;94526.53;;;10.29;100.00
10706;BME280;5404;42.656;23.336;2023-03-04T13:26:28;94548.28;;;10.58;100.00
10706;BME280;5404;42.656;23.336;2023-03-04T13:29:09;94543.66;;;10.50;100.00
10706;BME280;5404;42.656;23.336;2023-03-04T13:34:45;94547.53;;;10.44;100.00
10706;BME280;5404;42.656;23.336;2023-03-04T13:37:29;94539.72;;;10.48;100.00
10706;BME280;5404;42.656;23.336;2023-03-04T13:42:51;94546.97;;;10.20;100.00
10706;BME280;5404;42.656;23.336;2023-03-04T13:45:35;94533.63;;;10.07;100.00
10706;BME280;5404;42.656;23.336;2023-03-04T13:48:04;94545.25;;;9.84;100.00
10706;BME280;5404;42.656;23.336;2023-03-04T13:50:36;94550.13;;;9.82;100.00
10706;BME280;5404;42.656;23.336;2023-03-04T13:53:36;94535.81;;;9.78;100.00
10706;BME280;5404;42.656;23.336;2023-03-04T13:56:39;94536.00;;;9.81;100.00
10706;BME280;5404;42.656;23.336;2023-03-04T13:59:25;94535.13;;;9.86;100.00
10706;BME280;5404;42.656;23.336;2023-03-04T14:02:18;94529.78;;;9.86;100.00
10706;BME280;5404;42.656;23.336;2023-03-04T14:04:57;94536.50;;;9.97;100.00
10706;BME280;5404;42.656;23.336;2023-03-04T14:07:26;94522.50;;;10.05;100.00
10706;BME280;5404;42.656;23.336;2023-03-04T14:09:59;94524.97;;;10.01;100.00
10706;BME280;5404;42.656;23.336;2023-03-04T14:12:32;94530.09;;;10.11;100.00
10706;BME280;5404;42.656;23.336;2023-03-04T14:15:03;94511.41;;;10.16;100.00
10706;BME280;5404;42.656;23.336;2023-03-04T14:17:31;94515.00;;;10.20;100.00
10706;BME280;5404;42.656;23.336;2023-03-04T14:19:58;94521.03;;;10.26;100.00
10706;BME280;5404;42.656;23.336;2023-03-04T14:22:29;94480.94;;;10.09;100.00
10706;BME280;5404;42.656;23.336;2023-03-04T14:25:03;94515.97;;;10.38;100.00
10706;BME280;5404;42.656;23.336;2023-03-04T14:27:32;94519.13;;;10.40;100.00
10706;BME280;5404;42.656;23.336;2023-03-04T14:30:02;94508.47;;;10.40;100.00
10706;BME280;5404;42.656;23.336;2023-03-04T14:32:28;94481.66;;;10.36;100.00
10706;BME280;5404;42.656;23.336;2023-03-04T14:35:02;94487.53;;;10.47;100.00